Time;durP1;ratioP1;P1;durP2;ratioP2;P2;SDS_P1;SDS_P2;PMS_P1;PMS_P2;Temp;Humidity;BMP_temperature;BMP_pressure;BME280_temperature;BME280_humidity;BME280_pressure;Samples;Min_cycle;Max_cycle;Signal;HPM_P1;HPM_P2
2022/05/13 00:00:24;;;;;;;15.38;5.32;;;20.40;61.50;;;;;;4974290;28;20038;-66
2022/05/13 00:02:50;;;;;;;12.18;6.05;;;20.40;61.50;;;;;;4973984;28;20023;-65
2022/05/13 00:05:15;;;;;;;15.02;5.97;;;20.40;61.60;;;;;;4973674;28;20504;-65
2022/05/13 00:07:41;;;;;;;9.15;5.65;;;20.40;61.90;;;;;;4973660;28;20133;-65
2022/05/13 00:10:07;;;;;;;11.18;4.95;;;20.40;62.00;;;;;;4974345;28;20042;-65
2022/05/13 00:12:40;;;;;;;10.68;5.53;;;20.40;61.60;;;;;;4974225;28;20023;-65
2022/05/13 00:15:10;;;;;;;13.25;5.70;;;20.30;62.00;;;;;;4972444;28;20480;-66
2022/05/13 00:17:36;;;;;;;12.80;6.05;;;20.30;61.80;;;;;;4973751;28;20023;-65
2022/05/13 00:20:03;;;;;;;10.68;5.43;;;20.30;62.00;;;;;;4972004;28;20045;-65
2022/05/13 00:22:29;;;;;;;19.75;6.45;;;20.30;61.90;;;;;;4973499;28;20105;-64
2022/05/13 00:24:55;;;;;;;12.77;5.28;;;20.20;62.30;;;;;;4975819;28;20115;-66
2022/05/13 00:27:22;;;;;;;15.75;5.97;;;20.20;62.20;;;;;;4976015;28;20393;-65
2022/05/13 00:29:48;;;;;;;19.00;6.20;;;20.20;62.80;;;;;;4977441;28;20029;-66
2022/05/13 00:32:14;;;;;;;14.23;6.25;;;20.20;62.30;;;;;;4977225;28;20026;-64
2022/05/13 00:34:40;;;;;;;15.55;6.05;;;20.20;62.60;;;;;;4977228;28;20023;-64
2022/05/13 00:37:06;;;;;;;15.55;6.22;;;20.20;62.60;;;;;;4977215;28;20027;-66
2022/05/13 00:39:31;;;;;;;11.32;5.30;;;20.20;62.70;;;;;;4977095;28;20141;-65
2022/05/13 00:42:09;;;;;;;12.38;6.05;;;20.20;62.60;;;;;;4976955;28;20047;-65
2022/05/13 00:44:36;;;;;;;15.95;5.53;;;20.20;62.00;;;;;;4976873;28;20019;-65
2022/05/13 00:47:03;;;;;;;16.15;5.78;;;20.10;62.90;;;;;;4977421;28;20034;-65
2022/05/13 00:49:31;;;;;;;11.45;5.78;;;20.10;62.60;;;;;;4977510;28;20078;-64
2022/05/13 00:51:59;;;;;;;12.15;5.65;;;20.10;62.90;;;;;;4976929;28;20031;-65
2022/05/13 00:54:25;;;;;;;11.10;5.97;;;20.10;63.30;;;;;;4977240;28;20039;-64
2022/05/13 00:56:50;;;;;;;12.75;5.50;;;20.10;63.40;;;;;;4977317;28;20030;-65
2022/05/13 00:59:20;;;;;;;13.52;5.72;;;20.10;63.60;;;;;;4977552;28;20030;-66
2022/05/13 01:01:48;;;;;;;13.93;6.28;;;20.10;63.70;;;;;;4976801;28;20046;-65
2022/05/13 01:04:16;;;;;;;13.90;5.75;;;20.00;64.10;;;;;;4977178;28;20040;-66
2022/05/13 01:06:49;;;;;;;13.52;5.72;;;20.00;64.50;;;;;;4977009;28;20053;-66
2022/05/13 01:09:16;;;;;;;13.20;5.55;;;20.00;64.30;;;;;;4975398;28;20027;-64
2022/05/13 01:11:43;;;;;;;12.32;5.45;;;19.90;64.40;;;;;;4976941;28;20034;-64
2022/05/13 01:14:14;;;;;;;11.43;5.78;;;19.90;64.20;;;;;;4976762;28;20027;-66
2022/05/13 01:19:25;;;;;;;11.27;5.78;;;19.90;63.60;;;;;;4976840;28;20042;-64
2022/05/13 01:21:51;;;;;;;13.80;5.57;;;19.90;64.40;;;;;;4976868;28;20035;-64
2022/05/13 01:24:19;;;;;;;11.43;5.95;;;19.90;65.30;;;;;;4976595;28;20040;-64
2022/05/13 01:26:45;;;;;;;12.93;5.97;;;19.90;64.60;;;;;;4976690;28;20476;-65
2022/05/13 01:29:11;;;;;;;14.98;6.05;;;19.90;64.40;;;;;;4976508;28;20035;-64
2022/05/13 01:31:39;;;;;;;16.08;6.18;;;19.90;64.70;;;;;;4976531;28;20035;-64
2022/05/13 01:34:10;;;;;;;11.52;6.50;;;19.90;65.00;;;;;;4975747;28;20022;-65
2022/05/13 01:36:36;;;;;;;12.38;6.10;;;19.80;65.10;;;;;;4976213;28;20543;-65
2022/05/13 01:39:03;;;;;;;11.55;5.70;;;19.80;65.40;;;;;;4976251;28;20058;-64
2022/05/13 01:41:28;;;;;;;14.63;5.97;;;19.80;65.40;;;;;;4975739;28;20074;-66
2022/05/13 01:43:55;;;;;;;11.57;6.05;;;19.70;65.30;;;;;;4976502;28;20034;-66
2022/05/13 01:46:21;;;;;;;15.02;5.50;;;19.70;65.90;;;;;;4975957;28;20023;-63
2022/05/13 01:48:48;;;;;;;14.40;5.75;;;19.70;65.60;;;;;;4976324;28;20026;-66
2022/05/13 01:51:14;;;;;;;20.65;7.70;;;19.60;65.40;;;;;;4974588;28;20078;-65
2022/05/13 01:53:39;;;;;;;13.77;5.80;;;19.60;65.30;;;;;;4975997;28;20019;-65
2022/05/13 01:56:05;;;;;;;14.30;6.03;;;19.60;65.70;;;;;;4975784;28;20031;-64
2022/05/13 01:58:32;;;;;;;15.98;5.95;;;19.60;65.60;;;;;;4975938;28;20100;-65
2022/05/13 02:00:59;;;;;;;12.23;5.93;;;19.50;66.00;;;;;;4975682;28;20516;-65
2022/05/13 02:03:45;;;;;;;13.93;5.85;;;19.50;66.40;;;;;;4975712;28;20029;-66
2022/05/13 02:06:15;;;;;;;15.68;5.90;;;19.40;67.00;;;;;;4975766;28;20038;-68
2022/05/13 02:08:41;;;;;;;15.60;6.05;;;19.40;66.80;;;;;;4975668;28;20141;-64
2022/05/13 02:11:07;;;;;;;16.23;6.32;;;19.50;66.60;;;;;;4975805;28;20046;-64
2022/05/13 02:13:33;;;;;;;14.20;6.18;;;19.50;66.80;;;;;;4976183;28;20464;-65
2022/05/13 02:15:59;;;;;;;14.70;6.22;;;19.40;66.70;;;;;;4975619;28;20033;-66
2022/05/13 02:18:25;;;;;;;14.52;6.18;;;19.40;66.50;;;;;;4975620;28;20038;-65
2022/05/13 02:20:51;;;;;;;11.63;6.15;;;19.30;66.40;;;;;;4975348;28;20078;-65
2022/05/13 02:23:21;;;;;;;10.65;5.63;;;19.40;66.90;;;;;;4975453;28;20035;-65
2022/05/13 02:25:48;;;;;;;14.05;6.32;;;19.40;67.00;;;;;;4975077;28;20046;-64
2022/05/13 02:28:14;;;;;;;14.05;5.85;;;19.40;66.70;;;;;;4975353;28;20031;-64
2022/05/13 02:30:40;;;;;;;11.43;6.05;;;19.40;66.60;;;;;;4975248;28;20022;-65
2022/05/13 02:33:06;;;;;;;11.77;5.18;;;19.40;67.00;;;;;;4975149;28;20472;-66
2022/05/13 02:35:32;;;;;;;15.60;6.65;;;19.30;67.20;;;;;;4974873;28;20046;-65
2022/05/13 02:37:58;;;;;;;20.42;5.70;;;19.30;67.00;;;;;;4975073;28;20034;-64
2022/05/13 02:41:11;;;;;;;12.75;6.18;;;19.30;67.20;;;;;;4975120;28;20086;-66
2022/05/13 02:43:12;;;;;;;11.43;6.53;;;19.20;67.40;;;;;;4974763;28;20496;-65
2022/05/13 02:45:39;;;;;;;12.57;6.10;;;19.20;67.30;;;;;;4974142;28;20069;-65
2022/05/13 02:48:04;;;;;;;14.48;6.22;;;19.10;67.70;;;;;;4975168;28;20564;-64
2022/05/13 02:50:30;;;;;;;17.17;6.43;;;19.10;67.70;;;;;;4975133;28;20106;-65
2022/05/13 02:52:57;;;;;;;14.90;6.65;;;19.00;68.20;;;;;;4975047;28;20030;-64
2022/05/13 02:55:22;;;;;;;19.98;7.07;;;19.00;68.20;;;;;;4973626;28;20062;-65
2022/05/13 02:57:48;;;;;;;12.43;6.30;;;19.00;68.60;;;;;;4975101;28;20057;-65
2022/05/13 03:00:15;;;;;;;16.23;7.13;;;19.00;68.90;;;;;;4975125;28;20037;-65
2022/05/13 03:02:40;;;;;;;13.45;6.60;;;19.00;68.20;;;;;;4974627;28;20049;-65
2022/05/13 03:05:06;;;;;;;12.73;6.90;;;18.90;68.60;;;;;;4974541;28;20071;-64
2022/05/13 03:07:32;;;;;;;15.73;6.70;;;18.90;68.80;;;;;;4974775;28;20031;-64
2022/05/13 03:09:58;;;;;;;14.10;6.72;;;18.80;68.60;;;;;;4974815;28;20030;-64
2022/05/13 03:12:24;;;;;;;18.25;6.88;;;18.80;69.10;;;;;;4974584;28;20022;-64
2022/05/13 03:14:50;;;;;;;20.83;7.40;;;18.80;69.30;;;;;;4974662;28;20023;-64
2022/05/13 03:17:15;;;;;;;16.42;9.23;;;18.80;69.30;;;;;;4974611;28;20044;-66
2022/05/13 03:19:41;;;;;;;13.43;7.22;;;18.80;69.40;;;;;;4974650;28;20027;-65
2022/05/13 03:22:07;;;;;;;17.80;7.10;;;18.80;69.90;;;;;;4974351;28;20137;-65
2022/05/13 03:24:34;;;;;;;13.50;6.88;;;18.70;69.90;;;;;;4974249;28;20106;-66
2022/05/13 03:27:00;;;;;;;19.80;7.38;;;18.70;70.10;;;;;;4974707;28;20035;-65
2022/05/13 03:29:27;;;;;;;13.15;7.60;;;18.70;70.30;;;;;;4973731;28;20074;-65
2022/05/13 03:31:54;;;;;;;18.70;7.43;;;18.70;70.40;;;;;;4974348;28;20057;-64
2022/05/13 03:34:21;;;;;;;14.23;7.00;;;18.70;70.60;;;;;;4974242;28;20062;-65
2022/05/13 03:36:49;;;;;;;16.35;7.82;;;18.70;70.90;;;;;;4974385;28;20258;-64
2022/05/13 03:39:16;;;;;;;15.40;8.10;;;18.70;70.70;;;;;;4974257;28;20030;-65
2022/05/13 03:41:42;;;;;;;11.27;7.07;;;18.70;70.70;;;;;;4973899;28;20444;-65
2022/05/13 03:44:08;;;;;;;14.48;6.63;;;18.70;70.90;;;;;;4974093;28;20436;-65
2022/05/13 03:46:35;;;;;;;17.05;7.53;;;18.70;71.20;;;;;;4972601;28;20027;-65
2022/05/13 03:49:01;;;;;;;18.08;6.68;;;18.70;70.50;;;;;;4974226;28;20420;-64
2022/05/13 03:51:28;;;;;;;11.70;6.18;;;18.70;70.30;;;;;;4974086;28;20093;-65
2022/05/13 03:53:53;;;;;;;20.08;6.68;;;18.60;70.20;;;;;;4972665;28;20516;-65
2022/05/13 03:56:19;;;;;;;14.70;6.85;;;18.60;70.30;;;;;;4974126;28;20061;-65
2022/05/13 03:58:45;;;;;;;19.58;7.50;;;18.60;70.60;;;;;;4977732;28;20084;-65
2022/05/13 04:01:11;;;;;;;10.65;6.60;;;18.60;70.60;;;;;;4978026;28;20043;-64
2022/05/13 04:03:37;;;;;;;16.48;6.60;;;18.50;70.80;;;;;;4978143;28;20474;-65
2022/05/13 04:08:56;;;;;;;11.20;6.40;;;18.50;71.40;;;;;;4978099;28;20034;-65
2022/05/13 04:11:42;;;;;;;16.30;6.00;;;18.50;71.20;;;;;;4978098;28;20027;-65
2022/05/13 04:16:54;;;;;;;12.57;5.95;;;18.50;71.20;;;;;;4978259;28;20049;-66
2022/05/13 04:19:21;;;;;;;14.65;6.57;;;18.50;71.30;;;;;;4977840;28;20049;-65
2022/05/13 04:21:47;;;;;;;15.65;6.30;;;18.50;71.30;;;;;;4977574;28;20125;-65
2022/05/13 04:24:18;;;;;;;15.75;6.07;;;18.50;70.70;;;;;;4976137;28;20026;-65
2022/05/13 04:26:45;;;;;;;16.50;6.53;;;18.50;71.00;;;;;;4977936;28;20035;-65
2022/05/13 04:29:10;;;;;;;13.35;6.20;;;18.50;70.80;;;;;;4977990;28;20058;-65
2022/05/13 04:31:39;;;;;;;12.82;6.30;;;18.60;71.10;;;;;;4977556;28;20061;-65
2022/05/13 04:34:06;;;;;;;12.13;5.60;;;18.60;71.50;;;;;;4977346;28;20030;-66
2022/05/13 04:36:32;;;;;;;14.75;6.30;;;18.70;71.30;;;;;;4977359;28;20070;-67
2022/05/13 04:38:58;;;;;;;14.68;6.38;;;18.60;71.00;;;;;;4977694;28;20023;-64
2022/05/13 04:44:11;;;;;;;18.20;6.93;;;18.50;71.80;;;;;;4977715;28;20053;-66
2022/05/13 04:46:37;;;;;;;15.90;7.70;;;18.60;71.00;;;;;;4977400;28;20023;-66
2022/05/13 04:49:04;;;;;;;15.20;6.93;;;18.50;71.10;;;;;;4976127;28;20034;-64
2022/05/13 04:51:31;;;;;;;14.55;6.93;;;18.60;71.40;;;;;;4977261;28;20105;-65
2022/05/13 04:53:57;;;;;;;18.33;7.40;;;18.50;71.60;;;;;;4977517;28;20464;-65
2022/05/13 04:56:24;;;;;;;12.88;6.60;;;18.60;71.40;;;;;;4976968;28;20035;-64
2022/05/13 04:58:50;;;;;;;15.95;5.97;;;18.60;71.70;;;;;;4977151;28;20027;-65
2022/05/13 05:01:18;;;;;;;14.48;6.63;;;18.60;71.10;;;;;;4977048;28;20049;-65
2022/05/13 05:03:44;;;;;;;16.17;6.78;;;18.60;71.10;;;;;;4977073;28;20022;-64
2022/05/13 05:06:11;;;;;;;17.27;6.15;;;18.70;71.20;;;;;;4976895;28;20030;-64
2022/05/13 05:08:38;;;;;;;16.60;7.78;;;18.80;70.90;;;;;;4976479;28;20027;-65
2022/05/13 05:11:05;;;;;;;19.92;7.32;;;18.90;70.50;;;;;;4976798;28;20050;-66
2022/05/13 05:13:37;;;;;;;14.38;6.95;;;19.00;70.40;;;;;;4975302;28;20099;-66
2022/05/13 05:16:05;;;;;;;17.10;7.03;;;19.10;70.10;;;;;;4976432;28;20030;-66
2022/05/13 05:18:31;;;;;;;15.25;7.03;;;19.20;69.80;;;;;;4976600;28;20023;-64
2022/05/13 05:20:57;;;;;;;18.70;6.80;;;19.40;69.20;;;;;;4976572;28;20046;-66
2022/05/13 05:23:27;;;;;;;12.63;7.05;;;19.70;68.70;;;;;;4976870;28;20026;-65
2022/05/13 05:25:53;;;;;;;17.40;6.85;;;20.00;68.60;;;;;;4976426;28;20023;-64
2022/05/13 05:28:20;;;;;;;12.05;6.53;;;20.20;67.70;;;;;;4975261;28;20380;-66
2022/05/13 05:30:47;;;;;;;14.13;6.60;;;20.30;66.90;;;;;;4976466;28;20027;-66
2022/05/13 05:33:13;;;;;;;15.48;7.15;;;20.50;66.50;;;;;;4976310;28;20476;-66
2022/05/13 05:35:39;;;;;;;15.65;6.97;;;20.70;66.10;;;;;;4976174;28;20084;-65
2022/05/13 05:38:07;;;;;;;17.27;7.75;;;20.90;66.40;;;;;;4976346;28;20058;-66
2022/05/13 05:40:34;;;;;;;24.95;6.40;;;21.10;65.90;;;;;;4975899;28;20588;-66
2022/05/13 05:43:08;;;;;;;15.52;6.57;;;21.30;64.90;;;;;;4976163;28;20033;-66
2022/05/13 05:45:36;;;;;;;19.25;8.30;;;21.40;64.10;;;;;;4975897;28;20058;-66
2022/05/13 05:48:02;;;;;;;14.68;6.55;;;21.60;63.90;;;;;;4976097;28;20047;-66
2022/05/13 05:50:28;;;;;;;14.93;5.40;;;21.70;62.70;;;;;;4976060;28;20023;-65
2022/05/13 05:52:53;;;;;;;11.38;5.22;;;21.90;62.60;;;;;;4976068;28;20048;-66
2022/05/13 05:58:06;;;;;;;17.30;6.13;;;22.10;61.00;;;;;;4976034;28;20037;-66
2022/05/13 06:00:33;;;;;;;14.57;5.88;;;22.20;61.30;;;;;;4975642;28;20073;-64
2022/05/13 06:02:59;;;;;;;12.20;5.90;;;22.30;60.80;;;;;;4975678;28;20038;-65
2022/05/13 06:05:26;;;;;;;19.73;6.28;;;22.40;60.00;;;;;;4973986;28;20022;-67
2022/05/13 06:07:56;;;;;;;10.65;5.18;;;22.50;60.20;;;;;;4975543;28;20043;-65
2022/05/13 06:10:22;;;;;;;16.10;6.07;;;22.50;60.10;;;;;;4975258;28;20062;-66
2022/05/13 06:12:48;;;;;;;13.93;5.95;;;22.70;59.70;;;;;;4975341;28;20019;-67
2022/05/13 06:15:14;;;;;;;22.23;8.35;;;22.80;59.60;;;;;;4975241;28;20043;-69
2022/05/13 06:17:49;;;;;;;11.80;5.88;;;23.00;58.90;;;;;;4975416;28;20047;-67
2022/05/13 06:20:17;;;;;;;16.42;6.10;;;23.20;59.00;;;;;;4974728;28;20388;-67
2022/05/13 06:22:42;;;;;;;15.95;5.93;;;23.40;58.30;;;;;;4974567;28;20035;-67
2022/05/13 06:25:10;;;;;;;20.30;8.35;;;23.50;57.80;;;;;;4975000;28;20158;-67
2022/05/13 06:27:37;;;;;;;14.93;6.53;;;23.60;58.00;;;;;;4973878;28;20113;-68
2022/05/13 06:30:09;;;;;;;11.38;6.07;;;23.70;57.60;;;;;;4974946;28;20062;-67
2022/05/13 06:32:35;;;;;;;12.95;6.35;;;23.90;57.20;;;;;;4975110;28;20038;-67
2022/05/13 06:35:02;;;;;;;13.95;5.30;;;24.00;56.90;;;;;;4974974;28;20027;-68
2022/05/13 06:37:27;;;;;;;18.63;6.30;;;24.10;56.60;;;;;;4975129;28;20030;-66
2022/05/13 06:39:53;;;;;;;13.80;5.57;;;24.10;56.10;;;;;;4975495;28;20027;-67
2022/05/13 06:42:19;;;;;;;15.77;6.05;;;24.00;55.90;;;;;;4974934;28;20049;-67
2022/05/13 06:44:45;;;;;;;20.23;6.82;;;24.10;55.70;;;;;;4974919;28;20031;-66
2022/05/13 06:47:10;;;;;;;10.93;5.60;;;24.20;55.50;;;;;;4974898;28;20396;-65
2022/05/13 06:49:36;;;;;;;16.60;5.95;;;24.20;55.30;;;;;;4974856;28;20114;-66
2022/05/13 06:52:03;;;;;;;15.60;6.25;;;24.20;55.20;;;;;;4973664;28;20045;-67
2022/05/13 06:54:32;;;;;;;21.42;9.07;;;24.30;55.40;;;;;;4974685;28;20023;-67
2022/05/13 06:56:58;;;;;;;16.35;6.57;;;24.50;54.80;;;;;;4974608;28;20507;-67
2022/05/13 06:59:24;;;;;;;13.57;6.57;;;24.50;54.60;;;;;;4974768;28;20047;-65
2022/05/13 07:01:49;;;;;;;17.15;7.82;;;24.50;54.20;;;;;;4973552;28;20045;-67
2022/05/13 07:04:15;;;;;;;14.90;6.57;;;24.70;54.40;;;;;;4974560;28;20054;-66
2022/05/13 07:06:41;;;;;;;18.35;7.65;;;24.80;54.30;;;;;;4974525;28;20106;-68
2022/05/13 07:09:07;;;;;;;23.60;7.32;;;25.00;54.30;;;;;;4974385;28;20102;-67
2022/05/13 07:11:35;;;;;;;13.98;6.40;;;25.10;53.70;;;;;;4974385;28;20468;-68
2022/05/13 07:14:01;;;;;;;15.18;6.25;;;25.20;53.20;;;;;;4973026;28;20463;-68
2022/05/13 07:16:27;;;;;;;19.98;6.68;;;25.20;52.90;;;;;;4974566;28;20093;-67
2022/05/13 07:18:52;;;;;;;16.98;6.20;;;25.10;52.90;;;;;;4974056;28;20030;-67
2022/05/13 07:21:18;;;;;;;20.67;6.88;;;25.20;53.10;;;;;;4974363;28;20039;-69
2022/05/13 07:23:44;;;;;;;18.27;6.35;;;25.20;52.80;;;;;;4974256;28;20025;-68
2022/05/13 07:26:11;;;;;;;12.50;6.03;;;25.20;52.60;;;;;;4974058;28;20035;-67
2022/05/13 07:28:38;;;;;;;12.93;5.88;;;25.10;52.40;;;;;;4974368;28;20345;-67
2022/05/13 07:31:05;;;;;;;16.65;6.13;;;25.00;53.20;;;;;;4974444;28;20019;-68
2022/05/13 07:33:31;;;;;;;20.10;6.80;;;25.00;52.80;;;;;;4972710;28;20109;-68
2022/05/13 07:35:57;;;;;;;14.18;6.35;;;25.10;52.20;;;;;;4973987;28;20484;-67
2022/05/13 07:38:24;;;;;;;14.38;6.03;;;25.20;51.90;;;;;;4974217;28;20027;-67
2022/05/13 07:43:35;;;;;;;16.10;5.75;;;25.30;51.30;;;;;;4973881;28;20477;-68
2022/05/13 07:46:02;;;;;;;17.23;5.85;;;25.20;51.40;;;;;;4973852;28;20029;-68
2022/05/13 07:48:28;;;;;;;18.63;6.32;;;25.10;51.90;;;;;;4973599;28;20046;-67
2022/05/13 07:50:54;;;;;;;22.98;5.20;;;25.10;51.60;;;;;;4973738;28;20022;-66
2022/05/13 07:53:20;;;;;;;23.92;6.45;;;25.20;51.80;;;;;;4972492;28;20027;-67
2022/05/13 07:55:46;;;;;;;15.30;5.65;;;25.30;51.40;;;;;;4974087;28;20031;-66
2022/05/13 07:58:11;;;;;;;9.75;5.55;;;25.10;51.00;;;;;;4973739;28;20106;-67
2022/05/13 08:00:38;;;;;;;16.73;6.32;;;25.10;51.50;;;;;;4973702;28;20085;-68
2022/05/13 08:03:09;;;;;;;25.52;6.95;;;25.20;51.40;;;;;;4974013;28;20055;-67
2022/05/13 08:05:40;;;;;;;30.27;6.63;;;25.30;51.30;;;;;;4973336;28;20361;-68
2022/05/13 08:08:16;;;;;;;23.02;8.63;;;25.20;51.10;;;;;;4973671;28;20470;-65
2022/05/13 08:10:50;;;;;;;16.45;6.45;;;25.20;51.00;;;;;;4974141;28;20384;-68
2022/05/13 08:13:16;;;;;;;17.05;5.82;;;25.30;51.00;;;;;;4973773;28;20031;-67
2022/05/13 08:15:42;;;;;;;14.85;5.13;;;25.20;50.00;;;;;;4973681;28;20030;-67
2022/05/13 08:18:08;;;;;;;16.00;5.40;;;25.10;50.30;;;;;;4973831;28;20054;-67
2022/05/13 08:20:35;;;;;;;18.65;6.22;;;25.10;50.20;;;;;;4973776;28;20101;-67
2022/05/13 08:23:01;;;;;;;14.73;4.60;;;25.10;50.60;;;;;;4973900;28;20038;-67
2022/05/13 08:25:28;;;;;;;15.55;5.53;;;25.10;50.00;;;;;;4973628;28;20018;-68
2022/05/13 08:27:54;;;;;;;13.43;4.65;;;24.90;49.90;;;;;;4973361;28;20027;-68
2022/05/13 08:30:20;;;;;;;28.52;5.82;;;24.80;49.90;;;;;;4973491;28;20050;-67
2022/05/13 08:32:46;;;;;;;36.22;6.82;;;24.80;49.90;;;;;;4973448;28;20023;-68
2022/05/13 08:35:14;;;;;;;39.17;7.03;;;24.90;50.20;;;;;;4973306;28;20642;-68
2022/05/13 08:37:50;;;;;;;21.85;5.70;;;25.00;50.30;;;;;;4973465;28;20117;-67
2022/05/13 08:40:20;;;;;;;13.43;5.30;;;25.00;49.90;;;;;;4973489;28;20452;-69
2022/05/13 08:42:47;;;;;;;14.05;5.50;;;25.00;49.90;;;;;;4973386;28;20078;-67
2022/05/13 08:45:15;;;;;;;15.68;5.35;;;25.10;50.00;;;;;;4975885;28;20034;-67
2022/05/13 08:47:57;;;;;;;18.30;6.85;;;25.10;50.00;;;;;;4977087;28;20472;-68
2022/05/13 08:50:37;;;;;;;25.13;7.57;;;25.10;49.70;;;;;;4977049;28;20142;-69
2022/05/13 08:53:38;;;;;;;13.38;5.22;;;25.10;48.60;;;;;;4977178;28;20023;-68
2022/05/13 08:56:08;;;;;;;26.23;5.90;;;25.10;49.10;;;;;;4976815;28;20030;-67
2022/05/13 08:58:55;;;;;;;20.58;6.00;;;25.10;50.00;;;;;;4976819;28;20082;-68
2022/05/13 09:01:29;;;;;;;16.25;5.05;;;25.20;49.70;;;;;;4976424;28;20492;-68
2022/05/13 09:04:04;;;;;;;14.88;6.18;;;25.20;49.30;;;;;;4976410;28;20118;-68
2022/05/13 09:06:49;;;;;;;12.95;4.88;;;25.30;49.70;;;;;;4976678;28;20019;-67
2022/05/13 09:09:15;;;;;;;19.48;5.18;;;25.30;48.60;;;;;;4976407;28;20046;-67
2022/05/13 09:11:48;;;;;;;14.88;5.25;;;25.30;48.10;;;;;;4976193;28;20027;-67
2022/05/13 09:14:30;;;;;;;19.77;5.15;;;25.20;47.50;;;;;;4976360;28;20030;-68
2022/05/13 09:17:30;;;;;;;17.55;4.93;;;25.10;47.30;;;;;;4974993;28;20041;-67
2022/05/13 09:20:04;;;;;;;13.18;4.55;;;25.20;46.30;;;;;;4975955;28;20067;-66
2022/05/13 09:22:32;;;;;;;;;;;25.20;47.90;;;;;;4976520;28;20089;-67
2022/05/13 09:24:58;;;;;;;12.15;4.50;;;25.30;46.60;;;;;;4976268;28;20292;-67
2022/05/13 09:27:24;;;;;;;12.98;4.38;;;25.40;47.30;;;;;;4976042;28;20034;-68
2022/05/13 09:29:49;;;;;;;37.70;6.03;;;25.30;45.70;;;;;;4976037;28;20098;-67
2022/05/13 09:32:27;;;;;;;12.85;4.18;;;25.30;45.80;;;;;;4976148;28;20156;-68
2022/05/13 09:35:05;;;;;;;18.30;4.40;;;25.40;44.40;;;;;;4976316;28;20465;-68
2022/05/13 09:37:38;;;;;;;9.82;3.65;;;25.50;44.40;;;;;;4976010;28;20112;-67
2022/05/13 09:40:10;;;;;;;10.15;2.83;;;25.50;44.00;;;;;;4976128;28;20023;-68
2022/05/13 09:42:48;;;;;;;14.35;3.70;;;25.50;43.00;;;;;;4975934;28;20027;-69
2022/05/13 09:45:26;;;;;;;10.15;3.55;;;25.50;42.60;;;;;;4975840;28;20106;-68
2022/05/13 09:48:18;;;;;;;13.25;3.10;;;25.70;41.20;;;;;;4975787;28;20457;-67
2022/05/13 09:50:59;;;;;;;10.50;3.35;;;25.70;41.10;;;;;;4973477;28;20106;-68
2022/05/13 09:53:30;;;;;;;8.18;2.70;;;25.80;41.00;;;;;;4975778;28;20372;-70
2022/05/13 09:55:58;;;;;;;10.93;3.33;;;25.80;41.50;;;;;;4958024;28;20023;-67
2022/05/13 09:58:29;;;;;;;8.20;3.80;;;25.90;41.50;;;;;;4975886;28;20023;-67
2022/05/13 10:01:02;;;;;;;20.17;3.92;;;25.90;41.50;;;;;;4975280;28;20040;-68
2022/05/13 10:03:31;;;;;;;;;;;26.00;41.80;;;;;;4975700;28;20046;-68
2022/05/13 10:06:08;;;;;;;21.42;6.32;;;26.10;42.30;;;;;;4975267;28;19910;-66
2022/05/13 10:13:57;;;;;;;25.10;4.63;;;26.20;42.40;;;;;;4975481;28;20481;-67
2022/05/13 10:14:34;;;;;;;13.25;3.85;;;26.30;42.00;;;;;;4975376;28;20552;-68
2022/05/13 10:17:23;;;;;;;11.77;3.45;;;26.40;41.90;;;;;;4975541;28;20488;-68
2022/05/13 10:19:56;;;;;;;11.82;3.28;;;26.50;40.60;;;;;;4975331;28;20031;-68
2022/05/13 10:22:33;;;;;;;14.40;3.10;;;26.50;40.40;;;;;;4975351;28;20039;-67
2022/05/13 10:25:14;;;;;;;10.05;3.20;;;26.50;39.20;;;;;;4975125;28;20023;-67
2022/05/13 10:27:47;;;;;;;10.82;3.00;;;26.40;39.80;;;;;;4975215;28;20031;-68
2022/05/13 10:30:26;;;;;;;13.95;3.72;;;26.40;40.00;;;;;;4975454;28;20053;-69
2022/05/13 10:33:02;;;;;;;10.07;3.38;;;26.50;39.30;;;;;;4973975;28;20030;-67
2022/05/13 10:35:58;;;;;;;10.82;3.25;;;26.60;39.70;;;;;;4973679;28;20062;-68
2022/05/13 10:38:44;;;;;;;11.55;3.75;;;26.60;38.90;;;;;;4975094;28;20564;-68
2022/05/13 10:41:25;;;;;;;14.55;4.95;;;26.70;39.40;;;;;;4974669;28;20042;-67
2022/05/13 10:44:23;;;;;;;10.38;4.10;;;26.80;39.70;;;;;;4975055;28;20035;-68
2022/05/13 10:47:00;;;;;;;10.40;4.20;;;26.90;40.30;;;;;;4975022;28;20061;-67
2022/05/13 10:49:38;;;;;;;9.93;3.60;;;26.90;40.10;;;;;;4974703;28;20444;-67
2022/05/13 10:52:27;;;;;;;13.60;4.00;;;26.90;39.90;;;;;;4974683;28;20085;-67
2022/05/13 10:55:15;;;;;;;12.45;3.80;;;27.10;40.10;;;;;;4974707;28;20358;-66
2022/05/13 10:58:07;;;;;;;11.05;3.63;;;27.10;40.00;;;;;;4974875;28;20027;-66
2022/05/13 11:01:14;;;;;;;9.73;3.38;;;27.20;39.70;;;;;;4974894;28;20082;-68
2022/05/13 11:03:43;;;;;;;10.23;3.60;;;27.40;38.90;;;;;;4972778;28;20062;-68
2022/05/13 11:06:26;;;;;;;8.30;3.67;;;27.50;39.30;;;;;;4973896;28;20059;-67
2022/05/13 11:09:18;;;;;;;8.57;2.85;;;27.50;37.90;;;;;;4974755;28;20027;-69
2022/05/13 11:11:45;;;;;;;9.57;3.70;;;27.50;38.10;;;;;;4974893;28;20076;-67
2022/05/13 11:14:16;;;;;;;11.82;3.38;;;27.50;37.80;;;;;;4974330;28;20031;-68
2022/05/13 11:16:45;;;;;;;9.90;3.28;;;27.50;37.50;;;;;;4974596;28;20023;-67
2022/05/13 11:19:37;;;;;;;10.25;3.10;;;27.60;39.50;;;;;;4974442;28;20037;-68
2022/05/13 11:22:21;;;;;;;6.72;2.97;;;27.70;36.70;;;;;;4974729;28;20042;-68
2022/05/13 11:28:09;;;;;;;14.88;6.47;;;27.80;38.60;;;;;;4974467;28;20360;-68
2022/05/13 11:30:45;;;;;;;46.85;6.28;;;27.90;40.00;;;;;;4974653;28;20029;-66
2022/05/13 11:33:13;;;;;;;16.73;5.10;;;27.90;42.50;;;;;;4974040;28;20035;-67
2022/05/13 11:35:43;;;;;;;16.45;5.13;;;27.90;43.00;;;;;;4974032;28;20023;-68
2022/05/13 11:38:19;;;;;;;17.55;5.95;;;28.00;43.50;;;;;;4974575;28;20031;-66
2022/05/13 11:40:51;;;;;;;12.88;4.50;;;28.00;43.60;;;;;;4974214;28;20062;-68
2022/05/13 11:43:20;;;;;;;13.32;4.35;;;28.10;42.60;;;;;;4974121;28;20098;-67
2022/05/13 11:46:06;;;;;;;12.05;4.63;;;28.10;44.10;;;;;;4973811;28;20030;-68
2022/05/13 11:48:36;;;;;;;14.55;4.93;;;28.20;43.10;;;;;;4974193;28;20457;-68
2022/05/13 11:51:27;;;;;;;18.20;4.47;;;28.20;44.00;;;;;;4974022;28;20031;-68
2022/05/13 11:54:13;;;;;;;11.90;4.82;;;28.30;43.30;;;;;;4973441;28;20360;-67
2022/05/13 11:56:42;;;;;;;12.75;4.82;;;28.30;43.50;;;;;;4973988;28;20031;-68
2022/05/13 11:59:11;;;;;;;11.70;4.32;;;28.20;43.50;;;;;;4972735;28;20052;-66
2022/05/13 12:01:44;;;;;;;13.68;4.32;;;28.30;43.30;;;;;;4973895;28;20034;-66
2022/05/13 12:04:12;;;;;;;10.38;4.57;;;28.20;42.90;;;;;;4973962;28;20019;-66
2022/05/13 12:06:50;;;;;;;14.88;4.32;;;28.20;42.80;;;;;;4973706;28;20027;-67
2022/05/13 12:09:38;;;;;;;15.25;4.18;;;28.20;42.80;;;;;;4973829;28;20085;-68
2022/05/13 12:12:17;;;;;;;9.68;3.90;;;28.20;43.10;;;;;;4972467;28;20035;-67
2022/05/13 12:15:21;;;;;;;11.13;4.22;;;28.20;41.90;;;;;;4973690;28;20417;-67
2022/05/13 12:18:36;;;;;;;12.20;4.25;;;28.30;42.80;;;;;;4973684;28;20078;-68
2022/05/13 12:21:19;;;;;;;;;;;28.40;41.80;;;;;;4975893;28;20452;-68
2022/05/13 12:23:56;;;;;;;11.82;3.67;;;28.40;41.80;;;;;;4977383;28;20339;-67
2022/05/13 12:26:45;;;;;;;13.52;5.15;;;28.50;42.90;;;;;;4977603;28;20128;-67
2022/05/13 12:29:17;;;;;;;20.02;8.57;;;28.60;42.90;;;;;;4977431;28;20031;-68
2022/05/13 12:31:48;;;;;;;15.95;4.85;;;28.60;42.90;;;;;;4977485;28;20039;-69
2022/05/13 12:37:47;;;;;;;11.55;4.05;;;28.60;43.10;;;;;;4977282;28;20539;-67
2022/05/13 12:40:22;;;;;;;13.00;4.68;;;28.70;42.90;;;;;;4976580;28;20522;-69
2022/05/13 12:42:51;;;;;;;16.90;3.63;;;28.70;43.00;;;;;;4977322;28;20045;-68
2022/05/13 12:45:40;;;;;;;9.68;3.50;;;28.80;43.10;;;;;;4977467;28;20511;-68
2022/05/13 12:48:08;;;;;;;11.40;3.35;;;28.70;43.10;;;;;;4976806;28;20062;-68
2022/05/13 12:50:51;;;;;;;11.43;3.85;;;28.70;42.30;;;;;;4977157;28;20050;-70
2022/05/13 12:53:29;;;;;;;14.20;3.35;;;28.70;42.70;;;;;;4976986;28;20062;-69
2022/05/13 12:56:16;;;;;;;11.25;3.40;;;28.70;43.40;;;;;;4977053;28;20035;-68
2022/05/13 12:58:54;;;;;;;14.35;3.85;;;28.70;42.90;;;;;;4977098;28;20049;-68
2022/05/13 13:01:20;;;;;;;12.18;3.55;;;28.70;43.10;;;;;;4975640;28;20501;-67
2022/05/13 13:03:49;;;;;;;9.93;3.55;;;28.70;43.80;;;;;;4977052;28;20039;-67
2022/05/13 13:06:20;;;;;;;16.60;5.22;;;28.70;43.70;;;;;;4977149;28;20472;-69
2022/05/13 13:08:52;;;;;;;8.10;3.08;;;28.80;43.80;;;;;;4976848;28;20503;-68
2022/05/13 13:11:51;;;;;;;12.77;3.05;;;28.80;43.50;;;;;;4977331;28;20034;-69
2022/05/13 13:14:32;;;;;;;14.98;3.65;;;28.80;42.60;;;;;;4974942;28;20031;-68
2022/05/13 13:17:19;;;;;;;9.85;3.70;;;28.70;42.60;;;;;;4977152;28;20041;-68
2022/05/13 13:19:48;;;;;;;10.65;4.60;;;28.80;42.60;;;;;;4977210;28;20027;-68
2022/05/13 13:22:20;;;;;;;13.75;3.65;;;28.70;42.60;;;;;;4976836;28;20043;-68